Arncliffe, Australia
Current Conditions -  °F | °C
As of 11:06 PM on Monday 22 Dec 2014 (Local Time) from YSSY Reporting Station
Broken Clouds Broken Clouds  
Wind Chill: 73°   Ceiling: 18000
Heat Index: 73°   Visibility: 6mi
Dew Point: 64°   Wind: 20mph
Humidity: 73%   Direction: 30°NNE
Pressure: 29.97"   Gusts: 31mph
Location:  33.93°S, 151.15°E
Report Text: YSSY 221206Z 03017G27KT 9999 FEW015 SCT170 BKN180 23/18 Q1015 NOSIG
Loading
Personal Weather Stations






























Interactive Weather Map New forecast layout! Learn more

10-Day Weather Forecast

Advertisements
Track Severe Weather on mobile